Time;durP1;ratioP1;P1;durP2;ratioP2;P2;SDS_P1;SDS_P2;PMS_P1;PMS_P2;Temp;Humidity;BMP_temperature;BMP_pressure;BME280_temperature;BME280_humidity;BME280_pressure;Samples;Min_cycle;Max_cycle;Signal;HPM_P1;HPM_P2
2023/02/15 00:01:38;;;;;;;19.63;7.87;;;3.60;99.90;;;;;;5018086;28;20537;-83
2023/02/15 00:04:05;;;;;;;14.60;6.87;;;3.60;99.90;;;;;;5035907;28;20208;-83
2023/02/15 00:06:30;;;;;;;20.37;9.50;;;3.60;99.90;;;;;;5018495;28;20276;-84
2023/02/15 00:08:56;;;;;;;13.37;7.53;;;3.60;99.90;;;;;;5018375;28;20263;-83
2023/02/15 00:11:42;;;;;;;13.83;7.87;;;3.60;99.90;;;;;;5001663;28;20254;-83
2023/02/15 00:14:19;;;;;;;19.53;9.37;;;3.60;99.90;;;;;;5036023;28;20168;-83
2023/02/15 00:16:46;;;;;;;12.37;5.93;;;3.60;99.90;;;;;;5017509;28;20182;-83
2023/02/15 00:19:13;;;;;;;15.60;8.07;;;3.50;99.90;;;;;;5035391;28;20263;-83
2023/02/15 00:21:40;;;;;;;14.50;8.20;;;3.50;99.90;;;;;;5035221;28;20234;-83
2023/02/15 00:24:08;;;;;;;18.17;7.97;;;3.60;99.90;;;;;;5035105;28;20286;-84
2023/02/15 00:26:34;;;;;;;18.20;8.00;;;3.60;99.90;;;;;;5035372;28;20200;-83
2023/02/15 00:29:00;;;;;;;15.07;9.00;;;3.60;99.90;;;;;;5035496;28;20208;-83
2023/02/15 00:31:27;;;;;;;15.57;8.20;;;3.60;99.90;;;;;;5001432;28;20264;-83
2023/02/15 00:33:53;;;;;;;27.67;10.73;;;3.60;99.90;;;;;;5000956;28;20192;-83
2023/02/15 00:36:18;;;;;;;15.87;7.23;;;3.60;99.90;;;;;;5001250;28;20190;-83
2023/02/15 00:38:44;;;;;;;29.60;9.40;;;3.60;99.90;;;;;;5001245;28;20185;-83
2023/02/15 00:41:10;;;;;;;17.17;7.43;;;3.60;99.90;;;;;;5035046;28;20208;-83
2023/02/15 00:43:36;;;;;;;28.47;10.00;;;3.60;99.90;;;;;;5034189;28;20251;-84
2023/02/15 00:46:04;;;;;;;17.47;8.30;;;3.60;99.90;;;;;;5017305;28;20265;-83
2023/02/15 00:48:30;;;;;;;17.83;8.93;;;3.60;99.90;;;;;;5035026;28;20184;-83
2023/02/15 00:50:58;;;;;;;20.60;9.03;;;3.60;99.90;;;;;;5017077;28;20215;-83
2023/02/15 00:53:26;;;;;;;15.53;7.70;;;3.60;99.90;;;;;;5034982;28;20697;-83
2023/02/15 00:55:52;;;;;;;17.90;9.03;;;3.60;99.90;;;;;;5034620;28;20212;-83
2023/02/15 00:58:18;;;;;;;23.37;9.13;;;3.50;99.90;;;;;;5035007;28;20188;-83
2023/02/15 01:00:45;;;;;;;19.27;8.43;;;3.50;99.90;;;;;;5016955;28;20188;-83
2023/02/15 01:03:12;;;;;;;20.00;8.50;;;3.50;99.90;;;;;;5017091;28;20247;-83
2023/02/15 01:05:38;;;;;;;14.17;6.93;;;3.50;99.90;;;;;;5034223;28;20195;-84
2023/02/15 01:08:04;;;;;;;17.80;8.23;;;3.50;99.90;;;;;;5017182;28;20659;-83
2023/02/15 01:10:30;;;;;;;13.50;7.33;;;3.50;99.90;;;;;;5017005;28;20173;-83
2023/02/15 01:12:56;;;;;;;18.93;6.73;;;3.50;99.90;;;;;;5016959;28;20232;-83
2023/02/15 01:15:22;;;;;;;21.80;8.20;;;3.50;99.90;;;;;;5034319;28;20185;-83
2023/02/15 01:17:52;;;;;;;17.30;7.50;;;3.50;99.90;;;;;;5034315;28;20204;-83
2023/02/15 01:20:23;;;;;;;16.83;7.77;;;3.50;99.90;;;;;;5016805;28;20199;-83
2023/02/15 01:22:49;;;;;;;18.07;8.47;;;3.50;99.90;;;;;;5034245;28;20234;-83
2023/02/15 01:25:20;;;;;;;18.37;7.17;;;3.50;99.90;;;;;;5033842;28;20236;-83
2023/02/15 01:27:46;;;;;;;20.73;7.60;;;3.50;99.90;;;;;;5016475;28;20242;-84
2023/02/15 01:30:12;;;;;;;15.67;7.47;;;3.50;99.90;;;;;;5033986;28;20173;-83
2023/02/15 01:32:38;;;;;;;15.57;8.13;;;3.40;99.90;;;;;;5016747;28;20279;-83
2023/02/15 01:35:04;;;;;;;22.17;9.73;;;3.40;99.90;;;;;;5033921;28;20630;-83
2023/02/15 01:37:31;;;;;;;16.63;7.27;;;3.50;99.90;;;;;;5034350;28;20191;-84
2023/02/15 01:39:59;;;;;;;21.77;7.33;;;3.40;99.90;;;;;;5016223;28;20581;-83
2023/02/15 01:42:27;;;;;;;19.83;7.87;;;3.40;99.90;;;;;;5000480;28;20240;-84
2023/02/15 01:44:55;;;;;;;31.87;9.40;;;3.50;99.90;;;;;;5033813;28;20212;-84
2023/02/15 01:47:46;;;;;;;20.33;8.67;;;3.50;99.90;;;;;;5016515;28;20180;-84
2023/02/15 01:50:24;;;;;;;21.57;10.53;;;3.50;99.90;;;;;;5022423;28;20533;-84
2023/02/15 01:52:58;;;;;;;15.20;7.63;;;3.50;99.90;;;;;;5015971;28;20271;-83
2023/02/15 01:55:30;;;;;;;23.27;9.43;;;3.50;99.90;;;;;;5034018;28;20164;-83
2023/02/15 01:57:56;;;;;;;10.20;6.50;;;3.40;99.90;;;;;;5033656;28;20626;-84
2023/02/15 02:00:22;;;;;;;19.70;8.87;;;3.40;99.90;;;;;;5033912;28;20200;-83
2023/02/15 02:02:50;;;;;;;22.63;10.10;;;3.40;99.90;;;;;;5015917;28;20259;-84
2023/02/15 02:05:16;;;;;;;15.47;6.97;;;3.40;99.90;;;;;;5033323;28;20209;-83
2023/02/15 02:07:45;;;;;;;26.83;9.43;;;3.40;99.90;;;;;;5033706;28;20256;-83
2023/02/15 02:10:15;;;;;;;15.67;7.93;;;3.40;99.90;;;;;;5033865;28;20180;-83
2023/02/15 02:12:43;;;;;;;21.23;8.90;;;3.40;99.90;;;;;;5015978;28;20168;-83
2023/02/15 02:15:09;;;;;;;16.83;7.80;;;3.40;99.90;;;;;;5033086;28;20199;-83
2023/02/15 02:18:02;;;;;;;18.47;7.93;;;3.40;99.90;;;;;;5033373;28;20256;-83
2023/02/15 02:20:52;;;;;;;22.50;9.80;;;3.30;99.90;;;;;;5034005;28;20247;-84
2023/02/15 02:23:49;;;;;;;13.43;7.93;;;3.40;99.90;;;;;;5015669;28;20258;-83
2023/02/15 02:26:27;;;;;;;17.90;6.93;;;3.40;99.90;;;;;;5033174;28;20173;-84
2023/02/15 02:29:34;;;;;;;16.57;8.17;;;3.40;99.90;;;;;;5015541;28;20290;-84
2023/02/15 02:32:03;;;;;;;17.10;7.87;;;3.40;99.90;;;;;;4952853;29;20633;-84
2023/02/15 02:34:56;;;;;;;19.27;7.77;;;3.40;99.90;;;;;;4952996;29;20221;-84
2023/02/15 02:37:34;;;;;;;22.10;8.10;;;3.40;99.90;;;;;;5007236;28;20192;-84
2023/02/15 02:40:12;;;;;;;21.93;9.00;;;3.40;99.90;;;;;;5032877;28;20172;-83
2023/02/15 02:42:59;;;;;;;19.27;8.20;;;3.40;99.90;;;;;;5033424;28;20161;-83
2023/02/15 02:46:00;;;;;;;21.40;10.00;;;3.40;99.90;;;;;;5015781;28;20193;-83
2023/02/15 02:48:30;;;;;;;15.93;7.83;;;3.40;99.90;;;;;;5028552;28;20194;-83
2023/02/15 02:50:56;;;;;;;15.10;7.97;;;3.40;99.90;;;;;;5033314;28;20311;-83
2023/02/15 02:53:21;;;;;;;28.30;10.67;;;3.40;99.90;;;;;;5015497;28;20239;-83
2023/02/15 02:55:53;;;;;;;23.57;8.10;;;3.40;99.90;;;;;;4999271;28;20298;-83
2023/02/15 02:58:21;;;;;;;19.47;9.43;;;3.30;99.90;;;;;;5015559;28;20294;-83
2023/02/15 03:00:57;;;;;;;20.60;8.37;;;3.40;99.90;;;;;;5015623;28;20180;-83
2023/02/15 03:03:23;;;;;;;21.23;8.50;;;3.40;99.90;;;;;;5033142;28;20222;-83
2023/02/15 03:05:54;;;;;;;22.67;8.83;;;3.40;99.90;;;;;;5015479;28;20192;-82
2023/02/15 03:08:23;;;;;;;21.50;8.57;;;3.40;99.90;;;;;;5019160;28;20180;-83
2023/02/15 03:10:52;;;;;;;19.77;9.03;;;3.40;99.90;;;;;;5019220;28;20207;-83
2023/02/15 03:13:19;;;;;;;18.27;8.50;;;3.40;99.90;;;;;;5019165;28;20192;-83
2023/02/15 03:18:36;;;;;;;17.77;8.63;;;3.40;99.90;;;;;;5036943;28;20231;-83
2023/02/15 03:21:03;;;;;;;16.47;8.93;;;3.30;99.90;;;;;;5036416;28;20673;-84
2023/02/15 03:23:32;;;;;;;16.77;7.13;;;3.40;99.90;;;;;;5018632;28;20204;-83
2023/02/15 03:26:04;;;;;;;20.87;6.57;;;3.30;99.90;;;;;;5036271;28;20175;-84
2023/02/15 03:28:38;;;;;;;18.50;7.83;;;3.30;99.90;;;;;;5036581;28;20704;-83
2023/02/15 03:31:06;;;;;;;21.07;7.73;;;3.30;99.90;;;;;;5036137;28;20646;-83
2023/02/15 03:33:35;;;;;;;17.50;8.67;;;3.30;99.90;;;;;;5036797;28;20187;-83
2023/02/15 03:36:06;;;;;;;16.63;7.57;;;3.30;99.90;;;;;;5036372;28;20231;-84
2023/02/15 03:39:11;;;;;;;23.93;9.33;;;3.30;99.90;;;;;;5036232;28;20175;-83
2023/02/15 03:41:46;;;;;;;20.97;7.70;;;3.30;99.90;;;;;;5036598;28;20654;-83
2023/02/15 03:44:27;;;;;;;15.30;7.23;;;3.30;99.90;;;;;;5036104;28;20243;-83
2023/02/15 03:47:02;;;;;;;19.27;9.23;;;3.30;99.90;;;;;;5036354;28;20176;-82
2023/02/15 03:49:42;;;;;;;10.47;7.20;;;3.30;99.90;;;;;;5036230;28;20642;-83
2023/02/15 03:52:10;;;;;;;16.07;7.77;;;3.30;99.90;;;;;;5036075;28;20622;-83
2023/02/15 03:54:43;;;;;;;16.77;7.63;;;3.30;99.90;;;;;;5017958;28;20199;-85
2023/02/15 04:02:50;;;;;;;16.80;8.20;;;3.30;99.90;;;;;;5036165;28;20184;-83
2023/02/15 04:05:16;;;;;;;12.00;5.97;;;3.30;99.90;;;;;;5035597;28;20208;-83
2023/02/15 04:07:41;;;;;;;18.80;7.03;;;3.30;99.90;;;;;;5036013;28;20573;-84
2023/02/15 04:12:51;;;;;;;14.63;6.27;;;3.30;99.90;;;;;;5020886;28;20195;-83
2023/02/15 04:18:03;;;;;;;12.27;5.60;;;3.30;99.90;;;;;;5019755;28;20695;-83
2023/02/15 04:25:57;;;;;;;16.07;7.40;;;3.30;99.90;;;;;;5035638;28;20187;-83
2023/02/15 04:28:22;;;;;;;23.27;7.67;;;3.30;99.90;;;;;;5017695;28;20184;-83
2023/02/15 04:30:48;;;;;;;15.77;6.47;;;3.20;99.90;;;;;;5035470;28;20263;-84
2023/02/15 04:33:14;;;;;;;8.17;5.90;;;3.20;99.90;;;;;;5001701;28;20217;-84
2023/02/15 04:35:39;;;;;;;14.20;5.80;;;3.20;99.90;;;;;;5017627;28;20185;-84
2023/02/15 04:38:05;;;;;;;16.33;6.13;;;3.20;99.90;;;;;;4985061;28;20243;-83
2023/02/15 04:40:31;;;;;;;13.87;6.40;;;3.20;99.90;;;;;;5035062;28;20208;-84
2023/02/15 04:42:56;;;;;;;13.13;6.83;;;3.20;99.90;;;;;;4984768;28;20572;-84
2023/02/15 04:45:22;;;;;;;10.10;4.97;;;3.20;99.90;;;;;;5034806;28;20315;-83
2023/02/15 04:47:47;;;;;;;13.50;6.00;;;3.20;99.90;;;;;;5017261;28;20184;-83
2023/02/15 04:50:13;;;;;;;18.40;8.10;;;3.20;99.90;;;;;;4998919;28;20217;-83
2023/02/15 04:52:39;;;;;;;15.30;7.20;;;3.20;99.90;;;;;;5014405;28;20194;-83
2023/02/15 04:55:05;;;;;;;18.03;8.90;;;3.20;99.90;;;;;;5006312;28;20189;-83
2023/02/15 04:57:31;;;;;;;22.17;6.93;;;3.20;99.90;;;;;;5012231;28;20191;-82
2023/02/15 04:59:58;;;;;;;12.93;6.70;;;3.20;99.90;;;;;;4998905;28;20652;-82
2023/02/15 05:02:24;;;;;;;21.33;8.07;;;3.20;99.90;;;;;;4996087;28;20188;-83
2023/02/15 05:04:50;;;;;;;10.10;6.27;;;3.20;99.90;;;;;;5004475;28;20213;-83
2023/02/15 05:07:15;;;;;;;12.43;6.37;;;3.20;99.90;;;;;;5000273;28;20550;-83
2023/02/15 05:09:41;;;;;;;17.27;7.77;;;3.30;99.90;;;;;;5016893;28;20590;-83
2023/02/15 05:12:07;;;;;;;18.30;6.03;;;3.20;99.90;;;;;;4984381;28;20278;-83
2023/02/15 05:14:32;;;;;;;10.93;5.93;;;4.60;99.90;;;;;;5000088;28;20220;-85
2023/02/15 05:17:01;;;;;;;13.63;5.97;;;3.20;99.90;;;;;;5033827;28;20189;-84
2023/02/15 05:19:27;;;;;;;18.53;7.10;;;3.20;99.90;;;;;;5030637;28;20185;-84
2023/02/15 05:21:52;;;;;;;28.80;6.73;;;3.20;99.90;;;;;;5004930;28;20181;-84
2023/02/15 05:29:46;;;;;;;16.80;6.97;;;3.20;99.90;;;;;;4998674;28;20180;-84
2023/02/15 05:32:14;;;;;;;24.93;6.83;;;3.20;99.90;;;;;;4996384;28;20193;-84
2023/02/15 05:34:39;;;;;;;16.40;7.83;;;3.20;99.90;;;;;;5013863;28;20289;-84
2023/02/15 05:37:05;;;;;;;18.17;8.57;;;3.20;99.90;;;;;;5008539;28;20259;-85
2023/02/15 05:39:31;;;;;;;18.30;7.73;;;3.20;99.90;;;;;;5006138;28;20234;-84
2023/02/15 05:41:59;;;;;;;18.23;8.50;;;3.20;99.90;;;;;;5007498;28;20176;-87
2023/02/15 05:44:25;;;;;;;21.40;8.20;;;3.20;99.90;;;;;;4996617;28;20222;-86
2023/02/15 05:46:51;;;;;;;17.00;6.80;;;3.20;99.90;;;;;;4994541;28;20279;-85
2023/02/15 05:49:16;;;;;;;16.13;7.53;;;3.20;99.90;;;;;;5009241;28;20188;-85
2023/02/15 05:51:42;;;;;;;17.20;6.33;;;3.20;99.90;;;;;;5028106;28;20726;-85
2023/02/15 05:54:08;;;;;;;15.90;7.47;;;3.20;99.90;;;;;;5013391;28;20806;-86
2023/02/15 05:56:33;;;;;;;20.23;8.67;;;3.20;99.90;;;;;;5015898;28;20645;-86
2023/02/15 05:58:59;;;;;;;16.77;6.77;;;3.20;99.90;;;;;;5011992;28;20263;-84
2023/02/15 06:01:25;;;;;;;20.23;6.67;;;3.20;99.90;;;;;;5011922;28;20181;-84
2023/02/15 06:03:51;;;;;;;12.90;6.77;;;3.20;99.90;;;;;;4978047;28;20212;-84
2023/02/15 06:06:17;;;;;;;13.17;6.23;;;3.20;99.90;;;;;;4996154;28;20181;-84
2023/02/15 06:08:43;;;;;;;14.00;6.60;;;3.20;99.90;;;;;;4995948;28;20192;-84
2023/02/15 06:11:09;;;;;;;17.70;8.13;;;3.20;99.90;;;;;;5013894;28;20213;-84
2023/02/15 06:13:35;;;;;;;11.60;5.40;;;3.20;99.90;;;;;;4996173;28;20196;-84
2023/02/15 06:16:01;;;;;;;20.33;6.53;;;3.20;99.90;;;;;;4996267;28;20647;-84
2023/02/15 06:18:26;;;;;;;10.30;5.17;;;3.20;99.90;;;;;;4997021;28;20210;-84
2023/02/15 06:20:52;;;;;;;9.70;6.40;;;3.20;99.90;;;;;;5014038;28;20626;-84
2023/02/15 06:23:18;;;;;;;22.17;7.53;;;3.30;99.90;;;;;;4995913;28;20178;-84
2023/02/15 06:25:47;;;;;;;13.70;7.63;;;3.30;99.90;;;;;;4995870;28;20182;-84
2023/02/15 06:28:13;;;;;;;10.63;6.27;;;3.30;99.90;;;;;;5014113;28;20183;-85
2023/02/15 06:30:39;;;;;;;22.97;7.70;;;3.30;99.90;;;;;;5013517;28;20181;-84
2023/02/15 06:33:04;;;;;;;11.90;7.20;;;3.30;99.90;;;;;;4996185;28;20188;-85
2023/02/15 06:35:30;;;;;;;16.63;6.87;;;3.30;99.90;;;;;;5013368;28;20181;-86
2023/02/15 06:37:56;;;;;;;11.07;5.90;;;3.30;99.90;;;;;;4995548;28;20181;-84
2023/02/15 06:40:22;;;;;;;12.87;6.70;;;3.30;99.90;;;;;;4979695;28;20215;-84
2023/02/15 06:42:48;;;;;;;13.53;5.63;;;3.30;99.90;;;;;;4995264;28;20220;-84
2023/02/15 06:45:14;;;;;;;18.30;6.50;;;3.30;99.90;;;;;;5013573;28;20216;-84
2023/02/15 06:47:39;;;;;;;14.73;7.77;;;3.30;99.90;;;;;;4978720;28;20201;-84
2023/02/15 06:50:06;;;;;;;12.53;5.50;;;3.30;99.90;;;;;;4963143;28;20238;-84
2023/02/15 06:52:32;;;;;;;11.93;5.10;;;3.30;99.90;;;;;;4994723;28;20185;-85
2023/02/15 06:54:57;;;;;;;17.13;7.00;;;3.30;99.90;;;;;;4994916;28;20196;-85
2023/02/15 06:57:23;;;;;;;9.03;5.70;;;3.30;99.90;;;;;;5012605;28;20196;-85
2023/02/15 06:59:49;;;;;;;17.83;8.00;;;3.30;99.90;;;;;;4994821;28;20984;-84
2023/02/15 07:02:15;;;;;;;18.33;7.63;;;3.40;99.90;;;;;;4979084;28;20178;-85
2023/02/15 07:04:40;;;;;;;18.77;9.10;;;3.40;99.90;;;;;;4995520;28;20247;-84
2023/02/15 07:07:11;;;;;;;16.37;8.73;;;3.40;99.90;;;;;;5013287;28;20263;-85
2023/02/15 07:09:37;;;;;;;12.73;6.37;;;3.40;99.90;;;;;;5013100;28;20177;-85
2023/02/15 07:14:47;;;;;;;19.93;4.73;;;3.40;99.90;;;;;;5013201;28;20278;-85
2023/02/15 07:17:12;;;;;;;12.10;6.83;;;3.40;99.90;;;;;;4979806;28;20225;-84
2023/02/15 07:19:38;;;;;;;13.03;6.37;;;3.40;99.90;;;;;;5012754;28;20192;-85
2023/02/15 07:22:04;;;;;;;13.00;5.60;;;3.40;99.90;;;;;;4995326;28;20185;-85
2023/02/15 07:24:30;;;;;;;7.47;3.77;;;3.40;99.90;;;;;;4978870;28;20597;-84
2023/02/15 07:26:57;;;;;;;11.40;5.33;;;3.50;99.90;;;;;;4979364;28;20667;-86
2023/02/15 07:29:23;;;;;;;12.33;6.00;;;3.50;99.90;;;;;;5013106;28;20184;-83
2023/02/15 07:31:48;;;;;;;11.50;5.63;;;3.50;99.90;;;;;;4995199;28;20212;-84
2023/02/15 07:34:15;;;;;;;10.17;4.87;;;3.50;99.90;;;;;;4995676;28;20225;-84
2023/02/15 07:36:41;;;;;;;20.10;6.00;;;3.50;99.90;;;;;;4995288;28;20243;-83
2023/02/15 07:39:07;;;;;;;10.37;6.30;;;3.50;99.90;;;;;;5013236;28;20189;-85
2023/02/15 07:41:33;;;;;;;12.80;5.77;;;3.50;99.90;;;;;;4995327;28;20232;-85
2023/02/15 07:43:58;;;;;;;11.23;4.80;;;3.50;99.90;;;;;;5013169;28;20248;-84
2023/02/15 07:46:24;;;;;;;8.83;4.83;;;3.40;99.90;;;;;;5013061;28;20212;-84
2023/02/15 07:48:50;;;;;;;12.17;6.47;;;3.50;99.90;;;;;;4995376;28;20209;-84
2023/02/15 07:51:15;;;;;;;10.83;5.97;;;3.50;99.90;;;;;;4995531;28;20204;-84
2023/02/15 07:53:42;;;;;;;8.57;4.10;;;;;;;;;;4997742;28;20685;-84
2023/02/15 07:56:11;;;;;;;11.40;6.70;;;3.50;99.90;;;;;;4998931;28;20208;-84
2023/02/15 07:58:52;;;;;;;16.30;6.70;;;3.50;99.90;;;;;;5016300;28;20181;-84
2023/02/15 08:01:33;;;;;;;10.63;5.50;;;3.60;99.90;;;;;;4998607;28;20181;-84
2023/02/15 08:03:58;;;;;;;14.40;7.33;;;3.50;99.90;;;;;;5015595;28;20219;-84
2023/02/15 08:06:27;;;;;;;11.17;5.50;;;3.60;99.90;;;;;;4998398;28;20178;-83
2023/02/15 08:08:53;;;;;;;16.00;7.27;;;3.60;99.90;;;;;;5015592;28;20177;-84
2023/02/15 08:11:32;;;;;;;12.37;6.27;;;3.60;99.90;;;;;;5016098;28;20650;-84
2023/02/15 08:14:05;;;;;;;12.40;5.37;;;3.70;99.90;;;;;;4997958;28;20189;-84
2023/02/15 08:16:45;;;;;;;13.17;5.43;;;3.70;99.90;;;;;;5016037;28;20215;-85
2023/02/15 08:19:27;;;;;;;14.50;5.37;;;3.80;99.90;;;;;;4982444;28;20283;-84
2023/02/15 08:21:58;;;;;;;11.67;5.60;;;3.70;99.90;;;;;;5015863;28;20177;-85
2023/02/15 08:24:30;;;;;;;14.90;6.37;;;3.70;99.90;;;;;;4997848;28;20241;-84
2023/02/15 08:26:56;;;;;;;9.93;5.50;;;3.70;99.90;;;;;;5015701;28;20161;-84
2023/02/15 08:29:26;;;;;;;10.97;5.40;;;3.80;99.90;;;;;;5015937;28;20173;-84
2023/02/15 08:31:58;;;;;;;12.57;7.23;;;3.80;99.90;;;;;;4997841;28;20216;-84
2023/02/15 08:34:24;;;;;;;16.53;7.50;;;3.80;99.90;;;;;;5015614;28;20178;-84
2023/02/15 08:36:50;;;;;;;10.10;5.17;;;3.90;99.90;;;;;;5015281;28;20590;-84
2023/02/15 08:39:16;;;;;;;16.30;6.37;;;3.90;99.90;;;;;;5015558;28;20181;-84
2023/02/15 08:41:45;;;;;;;13.60;6.60;;;3.80;99.90;;;;;;5015017;28;20187;-84
2023/02/15 08:44:11;;;;;;;10.83;6.27;;;3.80;99.90;;;;;;4997964;28;20643;-84
2023/02/15 08:46:39;;;;;;;19.67;8.67;;;3.70;99.90;;;;;;5015411;28;20208;-84
2023/02/15 08:49:06;;;;;;;8.53;6.57;;;3.80;99.90;;;;;;5015809;28;20180;-85
2023/02/15 08:51:37;;;;;;;19.33;8.83;;;3.70;99.90;;;;;;5015377;28;20268;-84
2023/02/15 08:54:09;;;;;;;10.43;5.60;;;3.80;99.90;;;;;;5015152;28;20165;-84
2023/02/15 08:56:39;;;;;;;10.57;6.17;;;3.80;99.90;;;;;;5015478;28;20248;-84
2023/02/15 08:59:06;;;;;;;15.43;8.00;;;3.70;99.90;;;;;;4997400;28;20189;-84
2023/02/15 09:01:34;;;;;;;12.10;5.80;;;3.70;99.90;;;;;;4997513;28;20184;-84
2023/02/15 09:04:08;;;;;;;16.50;7.90;;;3.70;99.90;;;;;;4996607;28;20225;-84
2023/02/15 09:06:34;;;;;;;19.77;6.07;;;3.80;99.90;;;;;;5015175;28;20168;-84
2023/02/15 09:09:00;;;;;;;11.13;6.23;;;3.90;99.90;;;;;;4996965;28;20647;-84
2023/02/15 09:11:33;;;;;;;16.00;7.00;;;3.90;99.90;;;;;;5014947;28;20192;-83
2023/02/15 09:14:04;;;;;;;17.60;7.03;;;3.90;99.90;;;;;;5014790;28;20177;-84
2023/02/15 09:16:32;;;;;;;13.07;6.33;;;3.90;99.90;;;;;;5018735;28;20166;-84
2023/02/15 09:18:58;;;;;;;11.70;6.97;;;3.90;99.90;;;;;;5026504;28;20177;-83
2023/02/15 09:21:26;;;;;;;13.63;5.80;;;3.90;99.90;;;;;;5031120;28;20185;-84
2023/02/15 09:23:55;;;;;;;18.33;8.03;;;3.90;99.90;;;;;;5030409;28;20233;-84
2023/02/15 09:26:23;;;;;;;24.47;7.33;;;3.90;99.90;;;;;;5030080;28;20181;-83
2023/02/15 09:28:52;;;;;;;22.53;9.83;;;3.90;99.90;;;;;;5025238;28;20177;-83
2023/02/15 09:31:20;;;;;;;11.77;7.37;;;4.00;99.90;;;;;;5014164;28;20178;-84
2023/02/15 09:33:48;;;;;;;17.90;7.57;;;4.10;99.90;;;;;;5013596;28;20264;-84
2023/02/15 09:36:28;;;;;;;10.87;5.57;;;4.10;99.90;;;;;;4997635;28;20575;-84
2023/02/15 09:39:02;;;;;;;21.27;6.97;;;4.10;99.90;;;;;;5033539;28;20164;-84
2023/02/15 09:41:53;;;;;;;12.77;7.17;;;4.10;99.90;;;;;;5033545;28;20168;-85
2023/02/15 09:44:46;;;;;;;24.70;8.10;;;4.20;99.90;;;;;;5015383;28;20213;-84
2023/02/15 09:47:38;;;;;;;12.73;6.93;;;4.20;99.90;;;;;;5033386;28;20157;-84
2023/02/15 09:50:22;;;;;;;9.23;5.27;;;4.30;99.90;;;;;;5013376;28;20185;-83
2023/02/15 09:53:06;;;;;;;15.73;6.53;;;4.30;99.90;;;;;;5021427;28;20301;-84
2023/02/15 09:55:47;;;;;;;13.60;7.23;;;4.30;99.90;;;;;;4995893;28;20191;-84
2023/02/15 09:58:39;;;;;;;13.47;7.50;;;4.30;99.90;;;;;;5013236;28;20164;-83
2023/02/15 10:01:19;;;;;;;11.30;5.73;;;4.20;99.90;;;;;;5013276;28;20184;-84
2023/02/15 10:03:47;;;;;;;14.00;5.47;;;4.10;99.90;;;;;;4995664;28;20603;-85
2023/02/15 10:06:41;;;;;;;23.27;8.57;;;4.10;99.90;;;;;;5000641;28;20224;-83
2023/02/15 10:09:25;;;;;;;11.20;5.63;;;4.20;99.90;;;;;;5005793;28;20173;-82
2023/02/15 10:12:03;;;;;;;11.87;5.13;;;4.20;99.90;;;;;;5000392;28;20216;-82
2023/02/15 10:14:37;;;;;;;13.27;5.87;;;4.40;99.90;;;;;;5022357;28;20689;-83
2023/02/15 10:17:30;;;;;;;11.43;6.20;;;4.30;99.90;;;;;;5020967;28;20168;-84
2023/02/15 10:20:05;;;;;;;10.87;6.30;;;4.20;99.90;;;;;;5004810;28;20644;-84
2023/02/15 10:22:50;;;;;;;14.40;6.57;;;4.20;99.90;;;;;;5027589;28;20161;-82
2023/02/15 10:25:18;;;;;;;12.53;6.80;;;4.20;99.90;;;;;;5032163;28;20585;-83
2023/02/15 10:27:49;;;;;;;8.90;4.63;;;4.20;99.90;;;;;;5032458;28;20183;-82
2023/02/15 10:30:16;;;;;;;7.07;4.90;;;4.20;99.90;;;;;;5023957;28;20177;-84
2023/02/15 10:32:54;;;;;;;9.83;5.60;;;4.30;99.90;;;;;;5028747;28;20183;-86
2023/02/15 10:35:30;;;;;;;11.77;6.33;;;4.30;99.90;;;;;;4995619;28;20196;-83
2023/02/15 10:37:57;;;;;;;6.40;4.50;;;4.20;99.90;;;;;;4995163;28;20545;-84
2023/02/15 10:40:31;;;;;;;13.13;6.43;;;4.30;99.90;;;;;;5013631;28;20184;-83
2023/02/15 10:43:27;;;;;;;10.93;5.77;;;4.30;99.90;;;;;;4995592;28;20180;-84
2023/02/15 10:46:33;;;;;;;10.80;4.97;;;4.30;99.90;;;;;;4995720;28;20189;-83
2023/02/15 10:49:21;;;;;;;8.50;5.10;;;4.40;99.90;;;;;;4975110;28;20181;-84
2023/02/15 10:52:10;;;;;;;14.57;5.57;;;4.50;99.90;;;;;;4995780;28;20181;-83
2023/02/15 10:54:59;;;;;;;9.83;5.53;;;4.50;99.90;;;;;;5012405;28;20197;-84
2023/02/15 10:57:24;;;;;;;11.03;5.07;;;4.70;99.90;;;;;;5013346;28;20170;-82
2023/02/15 11:00:01;;;;;;;9.70;5.33;;;4.80;99.90;;;;;;5012927;28;20224;-85
2023/02/15 11:02:40;;;;;;;8.13;4.30;;;4.90;99.90;;;;;;5013077;28;20171;-83
2023/02/15 11:05:39;;;;;;;11.00;5.67;;;5.00;99.90;;;;;;5012750;28;20633;-83
2023/02/15 11:08:09;;;;;;;11.83;5.30;;;5.10;99.90;;;;;;5013138;28;20633;-84
2023/02/15 11:10:51;;;;;;;9.97;5.33;;;5.10;99.90;;;;;;5013186;28;20228;-84
2023/02/15 11:13:19;;;;;;;16.63;6.67;;;4.90;99.90;;;;;;5012930;28;20165;-84
2023/02/15 11:15:53;;;;;;;6.87;4.50;;;5.00;99.90;;;;;;5013093;28;20177;-83
2023/02/15 11:18:43;;;;;;;8.93;5.70;;;5.00;99.90;;;;;;4995021;28;20192;-84
2023/02/15 11:21:32;;;;;;;13.27;5.00;;;5.10;99.90;;;;;;5012811;28;20166;-84
2023/02/15 11:24:00;;;;;;;8.47;4.67;;;5.00;99.90;;;;;;5014232;28;20241;-84
2023/02/15 11:26:41;;;;;;;6.83;4.07;;;5.00;99.90;;;;;;5012865;28;20189;-84
2023/02/15 11:29:22;;;;;;;8.87;4.73;;;4.70;99.90;;;;;;5015988;28;20168;-84
2023/02/15 11:31:54;;;;;;;11.63;6.00;;;4.50;99.90;;;;;;5016703;28;20185;-84
2023/02/15 11:34:34;;;;;;;17.87;6.63;;;4.40;99.90;;;;;;5016613;28;20181;-84
2023/02/15 11:37:08;;;;;;;9.97;5.47;;;4.40;99.90;;;;;;4999139;28;20657;-84
2023/02/15 11:39:35;;;;;;;9.23;5.17;;;4.60;99.90;;;;;;4999111;28;20173;-84
2023/02/15 11:42:29;;;;;;;10.77;4.87;;;4.90;99.90;;;;;;5016297;28;20201;-83
2023/02/15 11:45:26;;;;;;;12.03;4.90;;;5.30;99.90;;;;;;5013459;28;20252;-83
2023/02/15 11:47:53;;;;;;;12.10;4.60;;;5.50;99.90;;;;;;4998866;28;20188;-84
2023/02/15 11:50:25;;;;;;;12.00;4.40;;;5.70;99.90;;;;;;4998582;28;20185;-84
2023/02/15 11:52:58;;;;;;;12.63;6.40;;;5.70;99.90;;;;;;5016297;28;20185;-84
2023/02/15 11:55:28;;;;;;;12.53;5.37;;;5.50;99.90;;;;;;4998449;28;20189;-84
2023/02/15 11:58:15;;;;;;;13.10;5.67;;;5.50;99.90;;;;;;5016284;28;20247;-84
2023/02/15 12:00:47;;;;;;;13.13;5.67;;;5.50;99.90;;;;;;4998932;28;20208;-84
2023/02/15 12:03:18;;;;;;;7.17;4.13;;;5.60;99.90;;;;;;4998504;28;20562;-84
2023/02/15 12:05:49;;;;;;;11.03;5.40;;;5.60;99.90;;;;;;5016414;28;20213;-83
2023/02/15 12:08:21;;;;;;;9.37;5.20;;;5.90;99.90;;;;;;5016054;28;20165;-83
2023/02/15 12:10:58;;;;;;;15.77;6.47;;;6.20;99.90;;;;;;4998542;28;20270;-84
2023/02/15 12:13:24;;;;;;;15.97;5.83;;;6.40;99.90;;;;;;4998201;28;20185;-83
2023/02/15 12:15:53;;;;;;;19.87;6.40;;;6.60;99.90;;;;;;5016615;28;20305;-83
2023/02/15 12:18:32;;;;;;;10.43;5.60;;;6.50;99.90;;;;;;4998574;28;20189;-83
2023/02/15 12:21:09;;;;;;;18.33;5.70;;;6.50;99.90;;;;;;5015930;28;20295;-83
2023/02/15 12:23:43;;;;;;;12.17;6.77;;;6.30;99.90;;;;;;4998149;28;20267;-83
2023/02/15 12:26:09;;;;;;;17.33;6.33;;;6.10;99.90;;;;;;5015996;28;20177;-83
2023/02/15 12:28:49;;;;;;;20.40;7.13;;;6.10;99.90;;;;;;5015615;28;20543;-83
2023/02/15 12:31:23;;;;;;;11.07;5.53;;;6.10;99.90;;;;;;4997987;28;20574;-84
2023/02/15 12:33:51;;;;;;;9.60;5.33;;;6.20;99.90;;;;;;5016098;28;20228;-83
2023/02/15 12:36:20;;;;;;;16.53;7.27;;;6.30;99.90;;;;;;4997799;28;20274;-83
2023/02/15 12:39:20;;;;;;;14.60;6.60;;;6.40;99.90;;;;;;5015003;28;20178;-83
2023/02/15 12:41:57;;;;;;;14.73;6.20;;;6.60;99.90;;;;;;5015670;28;20193;-83
2023/02/15 12:44:36;;;;;;;11.97;5.80;;;6.70;99.90;;;;;;5020488;28;20330;-83
2023/02/15 12:47:16;;;;;;;12.20;6.03;;;6.90;99.90;;;;;;5020343;28;20275;-84
2023/02/15 12:49:42;;;;;;;11.67;5.27;;;7.10;99.90;;;;;;5014725;28;20169;-83
2023/02/15 12:52:17;;;;;;;14.30;6.17;;;7.00;99.90;;;;;;4997800;28;20181;-83
2023/02/15 12:54:44;;;;;;;9.13;4.90;;;7.10;99.90;;;;;;5014744;28;20829;-83
2023/02/15 12:57:29;;;;;;;14.40;4.93;;;7.10;99.90;;;;;;4998134;28;20317;-83
2023/02/15 13:00:03;;;;;;;12.33;5.37;;;6.80;99.90;;;;;;4999144;28;20331;-83
2023/02/15 13:02:51;;;;;;;11.67;5.80;;;6.80;99.90;;;;;;5015808;28;20170;-84
2023/02/15 13:05:31;;;;;;;14.57;5.97;;;7.00;99.90;;;;;;4997215;28;20247;-84
2023/02/15 13:08:19;;;;;;;14.87;6.00;;;7.20;99.90;;;;;;5014837;28;20161;-84
2023/02/15 13:11:02;;;;;;;15.47;5.70;;;7.80;99.90;;;;;;5014559;28;20196;-83
2023/02/15 13:13:34;;;;;;;20.00;5.80;;;7.80;99.90;;;;;;5014403;28;20211;-83
2023/02/15 13:16:04;;;;;;;12.13;5.93;;;7.80;99.90;;;;;;5014540;28;20162;-83
2023/02/15 13:18:42;;;;;;;12.87;6.23;;;8.00;99.90;;;;;;5014662;28;20261;-83
2023/02/15 13:21:13;;;;;;;14.00;7.53;;;8.20;99.90;;;;;;5022905;28;20542;-83
2023/02/15 13:23:44;;;;;;;12.07;4.80;;;8.30;99.90;;;;;;5033269;28;20286;-83
2023/02/15 13:26:15;;;;;;;15.40;5.43;;;8.20;99.90;;;;;;5007143;28;20275;-84
2023/02/15 13:28:54;;;;;;;18.07;8.13;;;8.30;99.90;;;;;;5007331;28;20606;-84
2023/02/15 13:31:23;;;;;;;15.60;6.30;;;9.10;99.90;;;;;;5006469;28;20550;-85
2023/02/15 13:34:07;;;;;;;15.53;6.70;;;9.40;99.90;;;;;;5024650;28;20208;-84
2023/02/15 13:36:44;;;;;;;15.27;7.20;;;10.10;99.90;;;;;;5023795;28;20696;-84
2023/02/15 13:40:01;;;;;;;12.98;6.28;;;10.70;98.80;;;;;;5024112;28;20168;-83